sensor_id;sensor_type;location;lat;lon;timestamp;temperature;humidity
8465;DHT22;4269;52.458;13.430;2023-07-13T00:00:46;27.50;99.90
8465;DHT22;4269;52.458;13.430;2023-07-13T00:03:13;27.10;99.90
8465;DHT22;4269;52.458;13.430;2023-07-13T00:05:41;27.50;99.90
8465;DHT22;4269;52.458;13.430;2023-07-13T00:08:07;27.50;99.90
8465;DHT22;4269;52.458;13.430;2023-07-13T00:10:39;27.50;99.90
8465;DHT22;4269;52.458;13.430;2023-07-13T00:13:05;27.30;99.90
8465;DHT22;4269;52.458;13.430;2023-07-13T00:15:32;27.70;99.90
8465;DHT22;4269;52.458;13.430;2023-07-13T00:17:58;27.60;99.90
8465;DHT22;4269;52.458;13.430;2023-07-13T00:20:26;27.50;99.90
8465;DHT22;4269;52.458;13.430;2023-07-13T00:22:54;27.80;99.90
8465;DHT22;4269;52.458;13.430;2023-07-13T00:25:20;27.90;99.90
8465;DHT22;4269;52.458;13.430;2023-07-13T00:30:16;27.70;99.90
8465;DHT22;4269;52.458;13.430;2023-07-13T00:32:43;27.70;99.90
8465;DHT22;4269;52.458;13.430;2023-07-13T00:35:10;27.80;99.90
8465;DHT22;4269;52.458;13.430;2023-07-13T00:37:36;27.80;99.90
8465;DHT22;4269;52.458;13.430;2023-07-13T00:40:06;27.70;99.90
8465;DHT22;4269;52.458;13.430;2023-07-13T00:42:33;27.80;99.90
8465;DHT22;4269;52.458;13.430;2023-07-13T00:45:06;27.80;99.90
8465;DHT22;4269;52.458;13.430;2023-07-13T00:47:33;27.20;99.90
8465;DHT22;4269;52.458;13.430;2023-07-13T00:50:00;27.80;99.90
8465;DHT22;4269;52.458;13.430;2023-07-13T00:52:27;27.80;99.90
8465;DHT22;4269;52.458;13.430;2023-07-13T00:54:54;27.80;99.90
8465;DHT22;4269;52.458;13.430;2023-07-13T00:57:23;27.80;99.90
8465;DHT22;4269;52.458;13.430;2023-07-13T00:59:52;27.80;99.90
8465;DHT22;4269;52.458;13.430;2023-07-13T01:02:20;27.70;99.90
8465;DHT22;4269;52.458;13.430;2023-07-13T01:04:47;27.80;99.90
8465;DHT22;4269;52.458;13.430;2023-07-13T01:07:14;28.10;99.90
8465;DHT22;4269;52.458;13.430;2023-07-13T01:09:40;29.60;99.90
8465;DHT22;4269;52.458;13.430;2023-07-13T01:12:08;27.80;99.90
8465;DHT22;4269;52.458;13.430;2023-07-13T01:14:36;27.80;99.90
8465;DHT22;4269;52.458;13.430;2023-07-13T01:17:03;27.90;99.90
8465;DHT22;4269;52.458;13.430;2023-07-13T01:19:33;27.80;99.90
8465;DHT22;4269;52.458;13.430;2023-07-13T01:22:05;27.80;99.90
8465;DHT22;4269;52.458;13.430;2023-07-13T01:24:34;27.80;99.90
8465;DHT22;4269;52.458;13.430;2023-07-13T01:27:01;27.80;99.90
8465;DHT22;4269;52.458;13.430;2023-07-13T01:29:29;27.80;99.90
8465;DHT22;4269;52.458;13.430;2023-07-13T01:31:56;28.10;99.90
8465;DHT22;4269;52.458;13.430;2023-07-13T01:34:22;30.40;99.90
8465;DHT22;4269;52.458;13.430;2023-07-13T01:36:49;27.80;99.90
8465;DHT22;4269;52.458;13.430;2023-07-13T01:39:20;27.90;99.90
8465;DHT22;4269;52.458;13.430;2023-07-13T01:41:47;28.00;99.90
8465;DHT22;4269;52.458;13.430;2023-07-13T01:44:13;27.80;99.90
8465;DHT22;4269;52.458;13.430;2023-07-13T01:46:40;27.80;99.90
8465;DHT22;4269;52.458;13.430;2023-07-13T01:49:06;27.80;99.90
8465;DHT22;4269;52.458;13.430;2023-07-13T01:51:33;27.80;99.90
8465;DHT22;4269;52.458;13.430;2023-07-13T01:53:59;27.60;99.90
8465;DHT22;4269;52.458;13.430;2023-07-13T01:56:27;28.00;99.90
8465;DHT22;4269;52.458;13.430;2023-07-13T01:58:53;27.80;99.90
8465;DHT22;4269;52.458;13.430;2023-07-13T02:01:20;27.80;99.90
8465;DHT22;4269;52.458;13.430;2023-07-13T02:03:46;27.80;99.90
8465;DHT22;4269;52.458;13.430;2023-07-13T02:06:13;27.80;99.90
8465;DHT22;4269;52.458;13.430;2023-07-13T02:08:40;27.70;99.90
8465;DHT22;4269;52.458;13.430;2023-07-13T02:11:07;27.80;99.90
8465;DHT22;4269;52.458;13.430;2023-07-13T02:13:35;27.80;99.90
8465;DHT22;4269;52.458;13.430;2023-07-13T02:18:29;27.80;99.90
8465;DHT22;4269;52.458;13.430;2023-07-13T02:20:55;27.80;99.90
8465;DHT22;4269;52.458;13.430;2023-07-13T02:23:22;27.80;99.90
8465;DHT22;4269;52.458;13.430;2023-07-13T02:25:49;27.90;99.90
8465;DHT22;4269;52.458;13.430;2023-07-13T02:28:15;27.80;99.90
8465;DHT22;4269;52.458;13.430;2023-07-13T02:30:43;27.80;99.90
8465;DHT22;4269;52.458;13.430;2023-07-13T02:33:09;27.70;99.90
8465;DHT22;4269;52.458;13.430;2023-07-13T02:35:36;27.80;99.90
8465;DHT22;4269;52.458;13.430;2023-07-13T02:38:02;27.70;99.90
8465;DHT22;4269;52.458;13.430;2023-07-13T02:42:58;27.80;99.90
8465;DHT22;4269;52.458;13.430;2023-07-13T02:45:25;27.90;99.90
8465;DHT22;4269;52.458;13.430;2023-07-13T02:47:52;27.80;99.90
8465;DHT22;4269;52.458;13.430;2023-07-13T02:50:19;27.80;99.90
8465;DHT22;4269;52.458;13.430;2023-07-13T02:55:12;27.70;99.90
8465;DHT22;4269;52.458;13.430;2023-07-13T02:57:39;27.60;99.90
8465;DHT22;4269;52.458;13.430;2023-07-13T03:00:07;27.60;99.90
8465;DHT22;4269;52.458;13.430;2023-07-13T03:02:34;27.80;99.90
8465;DHT22;4269;52.458;13.430;2023-07-13T03:05:03;27.60;99.90
8465;DHT22;4269;52.458;13.430;2023-07-13T03:12:25;27.60;99.90
8465;DHT22;4269;52.458;13.430;2023-07-13T03:14:52;27.80;99.90
8465;DHT22;4269;52.458;13.430;2023-07-13T03:17:18;27.70;99.90
8465;DHT22;4269;52.458;13.430;2023-07-13T03:19:44;27.70;99.90
8465;DHT22;4269;52.458;13.430;2023-07-13T03:22:16;27.70;99.90
8465;DHT22;4269;52.458;13.430;2023-07-13T03:24:42;27.50;99.90
8465;DHT22;4269;52.458;13.430;2023-07-13T03:27:09;27.70;99.90
8465;DHT22;4269;52.458;13.430;2023-07-13T03:29:35;27.70;99.90
8465;DHT22;4269;52.458;13.430;2023-07-13T03:32:02;27.70;99.90
8465;DHT22;4269;52.458;13.430;2023-07-13T03:34:29;27.70;99.90
8465;DHT22;4269;52.458;13.430;2023-07-13T03:36:56;27.70;99.90
8465;DHT22;4269;52.458;13.430;2023-07-13T03:39:24;27.60;99.90
8465;DHT22;4269;52.458;13.430;2023-07-13T03:41:52;27.70;99.90
8465;DHT22;4269;52.458;13.430;2023-07-13T03:44:18;27.60;99.90
8465;DHT22;4269;52.458;13.430;2023-07-13T03:46:45;27.50;99.90
8465;DHT22;4269;52.458;13.430;2023-07-13T03:49:12;27.70;99.90
8465;DHT22;4269;52.458;13.430;2023-07-13T03:51:38;27.70;99.90
8465;DHT22;4269;52.458;13.430;2023-07-13T03:54:05;27.70;99.90
8465;DHT22;4269;52.458;13.430;2023-07-13T03:56:33;27.70;99.90
8465;DHT22;4269;52.458;13.430;2023-07-13T04:01:27;27.50;99.90
8465;DHT22;4269;52.458;13.430;2023-07-13T04:03:54;27.30;99.90
8465;DHT22;4269;52.458;13.430;2023-07-13T04:06:22;27.60;99.90
8465;DHT22;4269;52.458;13.430;2023-07-13T04:08:51;27.70;99.90
8465;DHT22;4269;52.458;13.430;2023-07-13T04:11:18;27.70;99.90
8465;DHT22;4269;52.458;13.430;2023-07-13T04:13:47;27.70;99.90
8465;DHT22;4269;52.458;13.430;2023-07-13T04:16:14;27.70;99.90
8465;DHT22;4269;52.458;13.430;2023-07-13T04:18:41;27.60;99.90
8465;DHT22;4269;52.458;13.430;2023-07-13T04:21:08;27.50;99.90
8465;DHT22;4269;52.458;13.430;2023-07-13T04:23:35;27.70;99.90
8465;DHT22;4269;52.458;13.430;2023-07-13T04:28:28;27.30;99.90
8465;DHT22;4269;52.458;13.430;2023-07-13T04:30:57;27.60;99.90
8465;DHT22;4269;52.458;13.430;2023-07-13T04:33:23;27.80;99.90
8465;DHT22;4269;52.458;13.430;2023-07-13T04:35:50;27.60;99.90
8465;DHT22;4269;52.458;13.430;2023-07-13T04:38:22;27.70;99.90
8465;DHT22;4269;52.458;13.430;2023-07-13T04:40:50;27.60;99.90
8465;DHT22;4269;52.458;13.430;2023-07-13T04:43:17;28.20;99.90
8465;DHT22;4269;52.458;13.430;2023-07-13T04:45:44;27.70;99.90
8465;DHT22;4269;52.458;13.430;2023-07-13T04:48:12;27.60;99.90
8465;DHT22;4269;52.458;13.430;2023-07-13T04:50:39;27.80;99.90
8465;DHT22;4269;52.458;13.430;2023-07-13T04:53:05;27.70;99.90
8465;DHT22;4269;52.458;13.430;2023-07-13T04:55:32;27.60;99.90
8465;DHT22;4269;52.458;13.430;2023-07-13T04:57:59;27.90;99.90
8465;DHT22;4269;52.458;13.430;2023-07-13T05:00:26;27.50;99.90
8465;DHT22;4269;52.458;13.430;2023-07-13T05:02:54;27.70;99.90
8465;DHT22;4269;52.458;13.430;2023-07-13T05:05:24;27.70;99.90
8465;DHT22;4269;52.458;13.430;2023-07-13T05:07:51;27.70;99.90
8465;DHT22;4269;52.458;13.430;2023-07-13T05:10:18;27.50;99.90
8465;DHT22;4269;52.458;13.430;2023-07-13T05:12:45;27.70;99.90
8465;DHT22;4269;52.458;13.430;2023-07-13T05:15:11;27.70;99.90
8465;DHT22;4269;52.458;13.430;2023-07-13T05:17:38;27.70;99.90
8465;DHT22;4269;52.458;13.430;2023-07-13T05:20:06;27.70;99.90
8465;DHT22;4269;52.458;13.430;2023-07-13T05:22:34;27.80;99.90
8465;DHT22;4269;52.458;13.430;2023-07-13T05:25:01;27.70;99.90
8465;DHT22;4269;52.458;13.430;2023-07-13T05:27:28;27.70;99.90
8465;DHT22;4269;52.458;13.430;2023-07-13T05:29:54;27.80;99.90
8465;DHT22;4269;52.458;13.430;2023-07-13T05:34:47;27.90;99.90
8465;DHT22;4269;52.458;13.430;2023-07-13T05:37:14;27.80;99.90
8465;DHT22;4269;52.458;13.430;2023-07-13T05:39:42;27.80;99.90
8465;DHT22;4269;52.458;13.430;2023-07-13T05:44:35;26.80;99.90
8465;DHT22;4269;52.458;13.430;2023-07-13T05:47:02;27.80;99.90
8465;DHT22;4269;52.458;13.430;2023-07-13T05:49:29;27.80;99.90
8465;DHT22;4269;52.458;13.430;2023-07-13T05:51:56;27.80;99.90
8465;DHT22;4269;52.458;13.430;2023-07-13T05:54:23;27.30;99.90
8465;DHT22;4269;52.458;13.430;2023-07-13T05:56:51;27.50;99.90
8465;DHT22;4269;52.458;13.430;2023-07-13T05:59:18;26.60;99.90
8465;DHT22;4269;52.458;13.430;2023-07-13T06:01:44;26.60;99.90
8465;DHT22;4269;52.458;13.430;2023-07-13T06:06:38;26.00;99.90
8465;DHT22;4269;52.458;13.430;2023-07-13T06:09:04;25.80;99.90
8465;DHT22;4269;52.458;13.430;2023-07-13T06:11:31;25.40;99.90
8465;DHT22;4269;52.458;13.430;2023-07-13T06:13:58;25.20;99.90
8465;DHT22;4269;52.458;13.430;2023-07-13T06:16:25;25.30;99.90
8465;DHT22;4269;52.458;13.430;2023-07-13T06:18:52;25.10;99.90
8465;DHT22;4269;52.458;13.430;2023-07-13T06:21:20;25.10;99.90
8465;DHT22;4269;52.458;13.430;2023-07-13T06:23:48;25.00;99.90
8465;DHT22;4269;52.458;13.430;2023-07-13T06:26:16;25.00;99.90
8465;DHT22;4269;52.458;13.430;2023-07-13T06:28:43;24.30;99.90
8465;DHT22;4269;52.458;13.430;2023-07-13T06:31:12;24.30;99.90
8465;DHT22;4269;52.458;13.430;2023-07-13T06:33:39;23.30;99.90
8465;DHT22;4269;52.458;13.430;2023-07-13T06:36:07;23.20;99.90
8465;DHT22;4269;52.458;13.430;2023-07-13T06:41:01;22.90;99.90
8465;DHT22;4269;52.458;13.430;2023-07-13T06:43:28;23.00;99.90
8465;DHT22;4269;52.458;13.430;2023-07-13T06:45:55;22.70;99.90
8465;DHT22;4269;52.458;13.430;2023-07-13T06:48:23;22.80;99.90
8465;DHT22;4269;52.458;13.430;2023-07-13T06:50:50;22.70;99.90
8465;DHT22;4269;52.458;13.430;2023-07-13T06:53:19;22.70;99.90
8465;DHT22;4269;52.458;13.430;2023-07-13T06:55:46;22.70;99.90
8465;DHT22;4269;52.458;13.430;2023-07-13T06:58:14;23.10;99.90
8465;DHT22;4269;52.458;13.430;2023-07-13T07:00:41;22.80;99.90
8465;DHT22;4269;52.458;13.430;2023-07-13T07:03:09;22.90;99.90
8465;DHT22;4269;52.458;13.430;2023-07-13T07:05:37;22.50;99.90
8465;DHT22;4269;52.458;13.430;2023-07-13T07:08:04;22.70;99.90
8465;DHT22;4269;52.458;13.430;2023-07-13T07:10:31;22.70;99.90
8465;DHT22;4269;52.458;13.430;2023-07-13T07:15:25;22.70;99.90
8465;DHT22;4269;52.458;13.430;2023-07-13T07:17:52;22.70;99.90
8465;DHT22;4269;52.458;13.430;2023-07-13T07:20:19;22.70;99.90
8465;DHT22;4269;52.458;13.430;2023-07-13T07:22:47;22.80;99.90
8465;DHT22;4269;52.458;13.430;2023-07-13T07:25:13;22.90;99.90
8465;DHT22;4269;52.458;13.430;2023-07-13T07:27:40;22.80;99.90
8465;DHT22;4269;52.458;13.430;2023-07-13T07:30:07;23.10;99.90
8465;DHT22;4269;52.458;13.430;2023-07-13T07:32:34;23.10;99.90
8465;DHT22;4269;52.458;13.430;2023-07-13T07:37:27;23.20;99.90
8465;DHT22;4269;52.458;13.430;2023-07-13T07:39:55;23.20;99.90
8465;DHT22;4269;52.458;13.430;2023-07-13T07:44:49;23.40;99.90
8465;DHT22;4269;52.458;13.430;2023-07-13T07:47:15;23.40;99.90
8465;DHT22;4269;52.458;13.430;2023-07-13T07:52:09;23.50;99.90
8465;DHT22;4269;52.458;13.430;2023-07-13T07:54:35;23.30;99.90
8465;DHT22;4269;52.458;13.430;2023-07-13T07:57:03;23.70;99.90
8465;DHT22;4269;52.458;13.430;2023-07-13T07:59:30;23.90;99.90
8465;DHT22;4269;52.458;13.430;2023-07-13T08:04:23;23.90;99.90
8465;DHT22;4269;52.458;13.430;2023-07-13T08:06:50;23.90;99.90
8465;DHT22;4269;52.458;13.430;2023-07-13T08:09:16;24.20;99.90
8465;DHT22;4269;52.458;13.430;2023-07-13T08:11:43;24.10;99.90
8465;DHT22;4269;52.458;13.430;2023-07-13T08:14:10;24.20;99.90
8465;DHT22;4269;52.458;13.430;2023-07-13T08:16:37;24.60;99.90
8465;DHT22;4269;52.458;13.430;2023-07-13T08:21:31;24.50;99.90
8465;DHT22;4269;52.458;13.430;2023-07-13T08:23:58;24.40;99.90
8465;DHT22;4269;52.458;13.430;2023-07-13T08:26:24;24.50;99.90
8465;DHT22;4269;52.458;13.430;2023-07-13T08:28:51;24.60;99.90
8465;DHT22;4269;52.458;13.430;2023-07-13T08:31:18;24.50;99.90
8465;DHT22;4269;52.458;13.430;2023-07-13T08:33:45;24.50;99.90
8465;DHT22;4269;52.458;13.430;2023-07-13T08:36:12;24.60;99.90
8465;DHT22;4269;52.458;13.430;2023-07-13T08:38:38;24.80;99.90
8465;DHT22;4269;52.458;13.430;2023-07-13T08:41:11;24.60;99.90
8465;DHT22;4269;52.458;13.430;2023-07-13T08:43:38;24.60;99.90
8465;DHT22;4269;52.458;13.430;2023-07-13T08:46:08;24.60;99.90
8465;DHT22;4269;52.458;13.430;2023-07-13T08:48:41;24.80;99.90
8465;DHT22;4269;52.458;13.430;2023-07-13T08:51:16;24.90;99.90
8465;DHT22;4269;52.458;13.430;2023-07-13T08:53:49;25.20;99.90
8465;DHT22;4269;52.458;13.430;2023-07-13T08:56:19;25.00;99.90
8465;DHT22;4269;52.458;13.430;2023-07-13T08:58:51;25.00;99.90
8465;DHT22;4269;52.458;13.430;2023-07-13T09:01:24;24.90;99.90
8465;DHT22;4269;52.458;13.430;2023-07-13T09:03:59;25.20;99.90
8465;DHT22;4269;52.458;13.430;2023-07-13T09:06:40;25.00;99.90
8465;DHT22;4269;52.458;13.430;2023-07-13T09:09:16;25.00;99.90
8465;DHT22;4269;52.458;13.430;2023-07-13T09:11:50;25.00;99.90
8465;DHT22;4269;52.458;13.430;2023-07-13T09:14:31;25.00;99.90
8465;DHT22;4269;52.458;13.430;2023-07-13T09:17:00;25.00;99.90
8465;DHT22;4269;52.458;13.430;2023-07-13T09:19:32;24.80;99.90
8465;DHT22;4269;52.458;13.430;2023-07-13T09:22:02;24.90;99.90
8465;DHT22;4269;52.458;13.430;2023-07-13T09:24:36;24.90;99.90
8465;DHT22;4269;52.458;13.430;2023-07-13T09:27:12;24.80;99.90
8465;DHT22;4269;52.458;13.430;2023-07-13T09:29:44;24.80;99.90
8465;DHT22;4269;52.458;13.430;2023-07-13T09:32:14;24.80;99.90
8465;DHT22;4269;52.458;13.430;2023-07-13T09:34:50;24.90;99.90
8465;DHT22;4269;52.458;13.430;2023-07-13T09:37:18;25.00;99.90
8465;DHT22;4269;52.458;13.430;2023-07-13T09:39:46;25.00;99.90
8465;DHT22;4269;52.458;13.430;2023-07-13T09:42:16;25.00;99.90
8465;DHT22;4269;52.458;13.430;2023-07-13T09:44:52;25.00;99.90
8465;DHT22;4269;52.458;13.430;2023-07-13T09:47:20;25.00;99.90
8465;DHT22;4269;52.458;13.430;2023-07-13T09:49:57;25.20;99.90
8465;DHT22;4269;52.458;13.430;2023-07-13T09:52:25;25.30;99.90
8465;DHT22;4269;52.458;13.430;2023-07-13T09:54:53;25.90;99.90
8465;DHT22;4269;52.458;13.430;2023-07-13T09:57:25;25.40;99.90
8465;DHT22;4269;52.458;13.430;2023-07-13T09:59:54;25.50;99.90
8465;DHT22;4269;52.458;13.430;2023-07-13T10:02:27;25.60;99.90
8465;DHT22;4269;52.458;13.430;2023-07-13T10:05:00;25.90;99.90
8465;DHT22;4269;52.458;13.430;2023-07-13T10:07:28;26.10;99.90
8465;DHT22;4269;52.458;13.430;2023-07-13T10:09:55;26.30;99.90
8465;DHT22;4269;52.458;13.430;2023-07-13T10:12:23;26.30;99.90
8465;DHT22;4269;52.458;13.430;2023-07-13T10:14:52;26.40;99.90
8465;DHT22;4269;52.458;13.430;2023-07-13T10:17:26;26.30;99.90
8465;DHT22;4269;52.458;13.430;2023-07-13T10:19:59;26.40;99.90
8465;DHT22;4269;52.458;13.430;2023-07-13T10:22:32;26.40;99.90
8465;DHT22;4269;52.458;13.430;2023-07-13T10:25:04;26.40;99.90
8465;DHT22;4269;52.458;13.430;2023-07-13T10:27:35;26.20;99.90
8465;DHT22;4269;52.458;13.430;2023-07-13T10:30:09;26.20;99.90
8465;DHT22;4269;52.458;13.430;2023-07-13T10:32:38;26.20;99.90
8465;DHT22;4269;52.458;13.430;2023-07-13T10:35:09;26.20;99.90
8465;DHT22;4269;52.458;13.430;2023-07-13T10:37:47;26.30;99.90
8465;DHT22;4269;52.458;13.430;2023-07-13T10:40:18;26.00;99.90
8465;DHT22;4269;52.458;13.430;2023-07-13T10:42:48;26.40;99.90
8465;DHT22;4269;52.458;13.430;2023-07-13T10:45:19;26.40;99.90
8465;DHT22;4269;52.458;13.430;2023-07-13T10:47:46;26.40;99.90
8465;DHT22;4269;52.458;13.430;2023-07-13T10:50:19;26.60;99.90
8465;DHT22;4269;52.458;13.430;2023-07-13T10:52:48;26.60;99.90
8465;DHT22;4269;52.458;13.430;2023-07-13T10:55:37;26.70;99.90
8465;DHT22;4269;52.458;13.430;2023-07-13T10:58:13;26.70;99.90
8465;DHT22;4269;52.458;13.430;2023-07-13T11:00:47;26.70;99.90
8465;DHT22;4269;52.458;13.430;2023-07-13T11:03:17;26.60;99.90
8465;DHT22;4269;52.458;13.430;2023-07-13T11:05:49;26.50;99.90
8465;DHT22;4269;52.458;13.430;2023-07-13T11:08:21;26.50;99.90
8465;DHT22;4269;52.458;13.430;2023-07-13T11:10:57;26.50;99.90
8465;DHT22;4269;52.458;13.430;2023-07-13T11:13:55;26.50;99.90
8465;DHT22;4269;52.458;13.430;2023-07-13T11:16:43;26.50;99.90
8465;DHT22;4269;52.458;13.430;2023-07-13T11:19:37;26.50;99.90
8465;DHT22;4269;52.458;13.430;2023-07-13T11:22:14;26.50;99.90
8465;DHT22;4269;52.458;13.430;2023-07-13T11:24:50;26.50;99.90
8465;DHT22;4269;52.458;13.430;2023-07-13T11:27:34;26.40;99.90
8465;DHT22;4269;52.458;13.430;2023-07-13T11:30:23;26.50;99.90
8465;DHT22;4269;52.458;13.430;2023-07-13T11:33:10;26.50;99.90
8465;DHT22;4269;52.458;13.430;2023-07-13T11:35:44;26.50;99.90
8465;DHT22;4269;52.458;13.430;2023-07-13T11:38:16;26.60;99.90
8465;DHT22;4269;52.458;13.430;2023-07-13T11:40:44;26.70;99.90
8465;DHT22;4269;52.458;13.430;2023-07-13T11:43:13;26.80;99.90
8465;DHT22;4269;52.458;13.430;2023-07-13T11:45:40;26.60;99.90
8465;DHT22;4269;52.458;13.430;2023-07-13T11:48:18;26.80;99.90
8465;DHT22;4269;52.458;13.430;2023-07-13T11:50:50;26.90;99.90
8465;DHT22;4269;52.458;13.430;2023-07-13T11:53:18;26.80;99.90
8465;DHT22;4269;52.458;13.430;2023-07-13T11:55:45;26.60;99.90
8465;DHT22;4269;52.458;13.430;2023-07-13T11:58:14;26.80;99.90
8465;DHT22;4269;52.458;13.430;2023-07-13T12:00:43;26.70;99.90
8465;DHT22;4269;52.458;13.430;2023-07-13T12:03:19;26.90;99.90
8465;DHT22;4269;52.458;13.430;2023-07-13T12:05:56;26.80;99.90
8465;DHT22;4269;52.458;13.430;2023-07-13T12:08:25;27.10;99.90
8465;DHT22;4269;52.458;13.430;2023-07-13T12:11:14;27.30;99.90
8465;DHT22;4269;52.458;13.430;2023-07-13T12:13:41;27.20;99.90
8465;DHT22;4269;52.458;13.430;2023-07-13T12:16:16;27.40;99.90
8465;DHT22;4269;52.458;13.430;2023-07-13T12:18:43;27.60;99.90
8465;DHT22;4269;52.458;13.430;2023-07-13T12:21:13;27.70;99.90
8465;DHT22;4269;52.458;13.430;2023-07-13T12:23:43;27.70;99.90
8465;DHT22;4269;52.458;13.430;2023-07-13T12:26:11;27.70;99.90
8465;DHT22;4269;52.458;13.430;2023-07-13T12:28:43;28.30;99.90
8465;DHT22;4269;52.458;13.430;2023-07-13T12:31:23;28.00;99.90
8465;DHT22;4269;52.458;13.430;2023-07-13T12:33:56;28.10;99.90
8465;DHT22;4269;52.458;13.430;2023-07-13T12:36:23;28.10;99.90
8465;DHT22;4269;52.458;13.430;2023-07-13T12:38:51;28.10;99.90
8465;DHT22;4269;52.458;13.430;2023-07-13T12:41:18;28.30;99.90
8465;DHT22;4269;52.458;13.430;2023-07-13T12:43:46;28.30;99.90
8465;DHT22;4269;52.458;13.430;2023-07-13T12:46:18;28.40;99.90
8465;DHT22;4269;52.458;13.430;2023-07-13T12:48:47;28.40;99.90
8465;DHT22;4269;52.458;13.430;2023-07-13T12:51:14;28.90;99.90
8465;DHT22;4269;52.458;13.430;2023-07-13T12:53:49;28.50;99.90
8465;DHT22;4269;52.458;13.430;2023-07-13T12:56:21;28.60;99.90
8465;DHT22;4269;52.458;13.430;2023-07-13T12:58:50;28.70;99.90
8465;DHT22;4269;52.458;13.430;2023-07-13T13:01:21;28.70;99.90
8465;DHT22;4269;52.458;13.430;2023-07-13T13:03:49;28.70;99.90
8465;DHT22;4269;52.458;13.430;2023-07-13T13:06:26;28.80;99.90
8465;DHT22;4269;52.458;13.430;2023-07-13T13:08:55;28.70;99.90
8465;DHT22;4269;52.458;13.430;2023-07-13T13:11:24;28.80;99.90
8465;DHT22;4269;52.458;13.430;2023-07-13T13:13:51;28.90;99.90
8465;DHT22;4269;52.458;13.430;2023-07-13T13:16:21;28.90;99.90
8465;DHT22;4269;52.458;13.430;2023-07-13T13:18:48;29.00;99.90
8465;DHT22;4269;52.458;13.430;2023-07-13T13:21:16;29.00;99.90
8465;DHT22;4269;52.458;13.430;2023-07-13T13:23:42;29.00;99.90
8465;DHT22;4269;52.458;13.430;2023-07-13T13:26:11;29.10;99.90
8465;DHT22;4269;52.458;13.430;2023-07-13T13:28:39;29.10;99.90
8465;DHT22;4269;52.458;13.430;2023-07-13T13:31:08;29.20;99.90
8465;DHT22;4269;52.458;13.430;2023-07-13T13:33:38;29.20;99.90
8465;DHT22;4269;52.458;13.430;2023-07-13T13:36:13;29.30;99.90
8465;DHT22;4269;52.458;13.430;2023-07-13T13:38:41;29.30;99.90
8465;DHT22;4269;52.458;13.430;2023-07-13T13:41:09;29.30;99.90
8465;DHT22;4269;52.458;13.430;2023-07-13T13:43:36;29.30;99.90
8465;DHT22;4269;52.458;13.430;2023-07-13T13:46:13;28.40;99.90
8465;DHT22;4269;52.458;13.430;2023-07-13T13:48:41;29.40;99.90
8465;DHT22;4269;52.458;13.430;2023-07-13T13:51:13;29.40;99.90
8465;DHT22;4269;52.458;13.430;2023-07-13T13:53:40;29.40;99.90
8465;DHT22;4269;52.458;13.430;2023-07-13T13:56:08;29.40;99.90
8465;DHT22;4269;52.458;13.430;2023-07-13T13:58:34;29.50;99.90
8465;DHT22;4269;52.458;13.430;2023-07-13T14:01:01;29.50;99.90
8465;DHT22;4269;52.458;13.430;2023-07-13T14:03:29;29.50;99.90
8465;DHT22;4269;52.458;13.430;2023-07-13T14:05:56;29.60;99.90
8465;DHT22;4269;52.458;13.430;2023-07-13T14:08:23;29.50;99.90
8465;DHT22;4269;52.458;13.430;2023-07-13T14:10:51;29.70;99.90
8465;DHT22;4269;52.458;13.430;2023-07-13T14:13:21;29.70;99.90
8465;DHT22;4269;52.458;13.430;2023-07-13T14:15:49;29.70;99.90
8465;DHT22;4269;52.458;13.430;2023-07-13T14:18:16;29.40;99.90
8465;DHT22;4269;52.458;13.430;2023-07-13T14:20:45;29.80;99.90
8465;DHT22;4269;52.458;13.430;2023-07-13T14:23:12;29.90;99.90
8465;DHT22;4269;52.458;13.430;2023-07-13T14:25:39;29.90;99.90
8465;DHT22;4269;52.458;13.430;2023-07-13T14:28:19;30.00;99.90
8465;DHT22;4269;52.458;13.430;2023-07-13T14:30:46;30.10;99.90
8465;DHT22;4269;52.458;13.430;2023-07-13T14:33:13;30.20;99.90
8465;DHT22;4269;52.458;13.430;2023-07-13T14:35:39;30.20;99.90
8465;DHT22;4269;52.458;13.430;2023-07-13T14:38:11;30.40;99.90
8465;DHT22;4269;52.458;13.430;2023-07-13T14:40:39;30.60;99.90
8465;DHT22;4269;52.458;13.430;2023-07-13T14:43:09;30.70;99.90
8465;DHT22;4269;52.458;13.430;2023-07-13T14:45:37;30.90;99.90
8465;DHT22;4269;52.458;13.430;2023-07-13T14:48:13;31.10;99.90
8465;DHT22;4269;52.458;13.430;2023-07-13T14:50:40;31.10;99.90
8465;DHT22;4269;52.458;13.430;2023-07-13T14:53:10;31.30;99.90
8465;DHT22;4269;52.458;13.430;2023-07-13T14:55:37;31.50;99.90
8465;DHT22;4269;52.458;13.430;2023-07-13T14:58:04;31.70;99.90
8465;DHT22;4269;52.458;13.430;2023-07-13T15:00:31;31.70;99.90
8465;DHT22;4269;52.458;13.430;2023-07-13T15:02:59;31.70;99.90
8465;DHT22;4269;52.458;13.430;2023-07-13T15:05:28;31.80;99.90
8465;DHT22;4269;52.458;13.430;2023-07-13T15:07:57;31.90;99.90
8465;DHT22;4269;52.458;13.430;2023-07-13T15:10:27;32.00;99.90
8465;DHT22;4269;52.458;13.430;2023-07-13T15:12:58;32.00;99.90
8465;DHT22;4269;52.458;13.430;2023-07-13T15:15:27;32.00;99.90
8465;DHT22;4269;52.458;13.430;2023-07-13T15:17:53;32.10;99.90
8465;DHT22;4269;52.458;13.430;2023-07-13T15:20:25;32.10;99.90
8465;DHT22;4269;52.458;13.430;2023-07-13T15:22:51;32.10;99.90
8465;DHT22;4269;52.458;13.430;2023-07-13T15:25:21;32.10;99.90
8465;DHT22;4269;52.458;13.430;2023-07-13T15:27:51;32.20;99.90
8465;DHT22;4269;52.458;13.430;2023-07-13T15:30:18;32.20;99.90
8465;DHT22;4269;52.458;13.430;2023-07-13T15:32:45;32.20;99.90
8465;DHT22;4269;52.458;13.430;2023-07-13T15:35:16;32.20;99.90
8465;DHT22;4269;52.458;13.430;2023-07-13T15:37:43;32.20;99.90
8465;DHT22;4269;52.458;13.430;2023-07-13T15:40:10;32.30;99.90
8465;DHT22;4269;52.458;13.430;2023-07-13T15:42:38;32.20;99.90
8465;DHT22;4269;52.458;13.430;2023-07-13T15:45:15;32.30;99.90
8465;DHT22;4269;52.458;13.430;2023-07-13T15:47:43;32.30;99.90
8465;DHT22;4269;52.458;13.430;2023-07-13T15:50:12;32.10;99.90
8465;DHT22;4269;52.458;13.430;2023-07-13T15:52:38;32.10;99.90
8465;DHT22;4269;52.458;13.430;2023-07-13T15:55:07;32.20;99.90
8465;DHT22;4269;52.458;13.430;2023-07-13T15:57:35;32.20;99.90
8465;DHT22;4269;52.458;13.430;2023-07-13T16:00:02;31.90;99.90
8465;DHT22;4269;52.458;13.430;2023-07-13T16:02:32;31.90;99.90
8465;DHT22;4269;52.458;13.430;2023-07-13T16:04:58;31.60;99.90
8465;DHT22;4269;52.458;13.430;2023-07-13T16:07:25;31.50;99.90
8465;DHT22;4269;52.458;13.430;2023-07-13T16:09:52;31.50;99.90
8465;DHT22;4269;52.458;13.430;2023-07-13T16:12:18;31.50;99.90
8465;DHT22;4269;52.458;13.430;2023-07-13T16:14:46;31.20;99.90
8465;DHT22;4269;52.458;13.430;2023-07-13T16:17:14;31.50;99.90
8465;DHT22;4269;52.458;13.430;2023-07-13T16:19:42;31.50;99.90
8465;DHT22;4269;52.458;13.430;2023-07-13T16:22:14;31.40;99.90
8465;DHT22;4269;52.458;13.430;2023-07-13T16:24:42;31.50;99.90
8465;DHT22;4269;52.458;13.430;2023-07-13T16:27:10;31.50;99.90
8465;DHT22;4269;52.458;13.430;2023-07-13T16:29:38;31.60;99.90
8465;DHT22;4269;52.458;13.430;2023-07-13T16:32:06;31.60;99.90
8465;DHT22;4269;52.458;13.430;2023-07-13T16:34:34;31.60;99.90
8465;DHT22;4269;52.458;13.430;2023-07-13T16:37:12;31.40;99.90
8465;DHT22;4269;52.458;13.430;2023-07-13T16:39:39;31.70;99.90